Lions Gate Bridge — H9LV — position and weather

sailwx.info

Track history (hours):
 
Tides and Currents Weather Stations Pressure Air Temp Water Temp Dewpoint Dewpoint Depression Visibility Wind Speed Wind Dir Waves Ship Positions

Lions Gate Bridge

Last reported at 2015-Mar-28 04:04 UTC. Time now 2015-Mar-31 11:24 UTC.
Position N 35°36' E 141°14'.

Length 284.7 m; beam 40 m.

Type: Cargo ship. MMSI: 351086000.

Date/timePositionNaut miles runAvg speedWind from/ knotsBaromVisibWave heightAir tempDewpointWater temp
2015-Mar-28 04:04N 35°36' E 141°14'1323.9
2015-Mar-28 03:32N 35°27' E 141°03'2323.8
2015-Mar-28 02:33N 35°10' E 140°43'2222.3
2015-Mar-28 01:33N 34°57' E 140°21'6 5.1
2015-Mar-28 00:19N 34°51' E 140°20'1417.6
2015-Mar-27 23:33N 34°52' E 140°04'1817.5
2015-Mar-27 22:33N 34°55' E 139°43'1717.5
2015-Mar-27 21:34N 35°12' E 139°46'1211.6
2015-Mar-27 20:33N 35°23' E 139°42'1212.0
2015-Mar-27 19:33N 35°34' E 139°49'4 3.5
2015-Mar-27 18:32N 35°37' E 139°46'0 0.0
2015-Mar-27 17:32N 35°37' E 139°46'0 0.0
2015-Mar-27 16:32N 35°37' E 139°46'0 0.0
2015-Mar-27 15:32N 35°37' E 139°46'0 0.0
2015-Mar-27 14:26N 35°37' E 139°46'0 0.0
2015-Mar-27 13:32N 35°37' E 139°46'0 0.0
2015-Mar-27 12:29N 35°37' E 139°46'0 0.0
2015-Mar-27 11:32N 35°37' E 139°46'0 0.0
2015-Mar-27 10:32N 35°37' E 139°46'0 0.0
2015-Mar-27 09:32N 35°37' E 139°46'0 0.0
2015-Mar-27 08:32N 35°37' E 139°46'0 0.0
2015-Mar-27 07:26N 35°37' E 139°46'0 0.0
2015-Mar-27 06:32N 35°37' E 139°46'0 0.0
2015-Mar-27 05:26N 35°37' E 139°46'0 0.0
2015-Mar-27 04:29N 35°37' E 139°46'0 0.0
2015-Mar-27 03:32N 35°37' E 139°46'0 0.0
2015-Mar-27 02:32N 35°37' E 139°46'0 0.0
2015-Mar-27 01:20N 35°37' E 139°46'0 0.0
2015-Mar-27 00:32N 35°37' E 139°46'0 0.0
2015-Mar-26 23:26N 35°37' E 139°46'3 3.0
2015-Mar-26 22:33N 35°35' E 139°48'1211.6
2015-Mar-26 21:34N 35°23' E 139°46'1212.2
2015-Mar-26 20:33N 35°11' E 139°47'7 7.3
2015-Mar-26 19:34N 35°04' E 139°44'1211.2
2015-Mar-26 18:32N 34°58' E 139°31'5817.7
2015-Mar-26 15:16N 34°27' E 138°33'  
2015-Mar-23 11:12N 24°34' E 119°19'1320.8
2015-Mar-23 10:33N 24°26' E 119°07'4019.8
2015-Mar-23 08:32N 24°02' E 118°32'1919.0
2015-Mar-23 07:33N 23°51' E 118°15'1918.7
2015-Mar-23 06:33N 23°40' E 117°59'2119.8
2015-Mar-23 05:31N 23°27' E 117°41'3021.0
2015-Mar-23 04:06N 23°09' E 117°16'1322.0
2015-Mar-23 03:31N 23°01' E 117°05'2121.7
2015-Mar-23 02:33N 22°47' E 116°48'13018.5
2015-Mar-22 19:32N 22°25' E 114°29'1414.7
2015-Mar-22 18:33N 22°34' E 114°17'1 1.0
2015-Mar-22 17:31N 22°34' E 114°16'0 0.0
2015-Mar-22 16:31N 22°34' E 114°16'0 0.0
2015-Mar-22 15:25N 22°34' E 114°16'0 0.0
2015-Mar-22 14:20N 22°34' E 114°16'0 0.0
2015-Mar-22 13:19N 22°34' E 114°16'0 0.0
2015-Mar-22 12:31N 22°34' E 114°16'0 0.0
2015-Mar-22 11:13N 22°34' E 114°16'0 0.0
2015-Mar-22 10:25N 22°34' E 114°16'0 0.0
2015-Mar-22 06:25N 22°34' E 114°16'0 0.0
2015-Mar-22 05:31N 22°34' E 114°16'0 0.0
2015-Mar-22 01:04N 22°34' E 114°16'2 3.4
2015-Mar-22 00:33N 22°34' E 114°17'2110.3
2015-Mar-21 22:33N 22°17' E 114°30'1716.9
2015-Mar-21 21:34N 22°08' E 114°15'1212.3
2015-Mar-21 20:33N 22°17' E 114°06'3 3.2
2015-Mar-21 19:32N 22°20' E 114°08'0 0.0
2015-Mar-21 18:29N 22°20' E 114°08'0 0.0
2015-Mar-21 17:29N 22°20' E 114°08'0 0.0
2015-Mar-21 16:29N 22°20' E 114°08'0 0.0
2015-Mar-21 15:32N 22°20' E 114°08'0 0.0
2015-Mar-21 14:29N 22°20' E 114°08'0 0.0
2015-Mar-21 13:32N 22°20' E 114°08'0 0.0
2015-Mar-21 12:32N 22°20' E 114°08'0 0.0
2015-Mar-21 11:23N 22°20' E 114°08'0 0.0
2015-Mar-21 10:32N 22°20' E 114°08'0 0.1
2015-Mar-21 09:32N 22°20' E 114°08'0 0.1
2015-Mar-21 08:32N 22°20' E 114°08'0 0.0
2015-Mar-21 07:32N 22°20' E 114°08'0 0.0
2015-Mar-21 06:29N 22°20' E 114°08'0 0.0
2015-Mar-21 05:26N 22°20' E 114°08'0 0.0
2015-Mar-21 04:23N 22°20' E 114°08'0 0.0
2015-Mar-21 03:29N 22°20' E 114°08'0 0.1
2015-Mar-21 02:33N 22°20' E 114°08'3 3.1
2015-Mar-21 01:33N 22°17' E 114°06'6 5.6
2015-Mar-21 00:33N 22°13' E 114°10'6 5.6
2015-Mar-20 23:33N 22°09' E 114°15'6 6.2
2015-Mar-20 22:33N 22°09' E 114°21'6 6.4
2015-Mar-20 21:33N 22°09' E 114°28'193 9.2
2015-Mar-20 00:28N 23°27' E 117°40'1718.7
2015-Mar-19 23:33N 23°39' E 117°53'1918.8
2015-Mar-19 22:32N 23°53' E 118°07'1818.5
2015-Mar-19 21:33N 24°08' E 118°19'1616.0
2015-Mar-19 20:33N 24°21' E 118°09'9 7.2
2015-Mar-19 19:18N 24°27' E 118°01'0 0.0
2015-Mar-19 18:30N 24°27' E 118°01'0 0.0
2015-Mar-19 17:30N 24°27' E 118°01'0 0.0
2015-Mar-19 07:30N 24°27' E 118°01'0 0.0
2015-Mar-19 05:18N 24°27' E 118°01'1 1.1
2015-Mar-19 04:29N 24°26' E 118°02'1010.6
2015-Mar-19 03:33N 24°20' E 118°10'11 2.4
2015-Mar-18 23:15N 24°14' E 118°20'0 0.0
2015-Mar-18 22:32N 24°14' E 118°20'1 0.6
2015-Mar-18 21:32N 24°14' E 118°20'9 9.3
2015-Mar-18 20:33N 24°06' E 118°26'5513.6
2015-Mar-18 16:33N 23°20' E 118°57'1913.3
2015-Mar-18 15:07N 23°05' E 119°10'812.2
2015-Mar-18 14:29N 23°04' E 119°18'2613.2
2015-Mar-18 12:32N 22°59' E 119°46'1813.6
2015-Mar-18 11:13N 22°46' E 119°59'914.3
2015-Mar-18 10:34N 22°39' E 120°05'1312.6
2015-Mar-18 09:33N 22°33' E 120°18'2 1.9
2015-Mar-18 08:33N 22°33' E 120°20'0 0.0
2015-Mar-18 07:33N 22°33' E 120°20'0 0.0
2015-Mar-18 06:33N 22°33' E 120°20'0 0.0
2015-Mar-18 05:33N 22°33' E 120°20'0 0.0
2015-Mar-18 04:27N 22°33' E 120°20'  
Track history (hours):
 
Tides and Currents Weather Stations Pressure Air Temp Water Temp Dewpoint Dewpoint Depression Visibility Wind Speed Wind Dir Waves Ship Positions

Lions Gate Bridge

Last reported at 2015-Mar-28 04:04 UTC. Time now 2015-Mar-31 11:24 UTC.
Position N 35°36' E 141°14'.

Length 284.7 m; beam 40 m.

Type: Cargo ship. MMSI: 351086000.

Date/timePositionNaut miles runAvg speedWind from/ knotsBaromVisibWave heightAir tempDewpointWater temp
2015-Mar-28 04:04N 35°36' E 141°14'1323.9
2015-Mar-28 03:32N 35°27' E 141°03'2323.8
2015-Mar-28 02:33N 35°10' E 140°43'2222.3
2015-Mar-28 01:33N 34°57' E 140°21'6 5.1
2015-Mar-28 00:19N 34°51' E 140°20'1417.6
2015-Mar-27 23:33N 34°52' E 140°04'1817.5
2015-Mar-27 22:33N 34°55' E 139°43'1717.5
2015-Mar-27 21:34N 35°12' E 139°46'1211.6
2015-Mar-27 20:33N 35°23' E 139°42'1212.0
2015-Mar-27 19:33N 35°34' E 139°49'4 3.5
2015-Mar-27 18:32N 35°37' E 139°46'0 0.0
2015-Mar-27 17:32N 35°37' E 139°46'0 0.0
2015-Mar-27 16:32N 35°37' E 139°46'0 0.0
2015-Mar-27 15:32N 35°37' E 139°46'0 0.0
2015-Mar-27 14:26N 35°37' E 139°46'0 0.0
2015-Mar-27 13:32N 35°37' E 139°46'0 0.0
2015-Mar-27 12:29N 35°37' E 139°46'0 0.0
2015-Mar-27 11:32N 35°37' E 139°46'0 0.0
2015-Mar-27 10:32N 35°37' E 139°46'0 0.0
2015-Mar-27 09:32N 35°37' E 139°46'0 0.0
2015-Mar-27 08:32N 35°37' E 139°46'0 0.0
2015-Mar-27 07:26N 35°37' E 139°46'0 0.0
2015-Mar-27 06:32N 35°37' E 139°46'0 0.0
2015-Mar-27 05:26N 35°37' E 139°46'0 0.0
2015-Mar-27 04:29N 35°37' E 139°46'0 0.0
2015-Mar-27 03:32N 35°37' E 139°46'0 0.0
2015-Mar-27 02:32N 35°37' E 139°46'0 0.0
2015-Mar-27 01:20N 35°37' E 139°46'0 0.0
2015-Mar-27 00:32N 35°37' E 139°46'0 0.0
2015-Mar-26 23:26N 35°37' E 139°46'3 3.0
2015-Mar-26 22:33N 35°35' E 139°48'1211.6
2015-Mar-26 21:34N 35°23' E 139°46'1212.2
2015-Mar-26 20:33N 35°11' E 139°47'7 7.3
2015-Mar-26 19:34N 35°04' E 139°44'1211.2
2015-Mar-26 18:32N 34°58' E 139°31'5817.7
2015-Mar-26 15:16N 34°27' E 138°33'  
2015-Mar-23 11:12N 24°34' E 119°19'1320.8
2015-Mar-23 10:33N 24°26' E 119°07'4019.8
2015-Mar-23 08:32N 24°02' E 118°32'1919.0
2015-Mar-23 07:33N 23°51' E 118°15'1918.7
2015-Mar-23 06:33N 23°40' E 117°59'2119.8
2015-Mar-23 05:31N 23°27' E 117°41'3021.0
2015-Mar-23 04:06N 23°09' E 117°16'1322.0
2015-Mar-23 03:31N 23°01' E 117°05'2121.7
2015-Mar-23 02:33N 22°47' E 116°48'13018.5
2015-Mar-22 19:32N 22°25' E 114°29'1414.7
2015-Mar-22 18:33N 22°34' E 114°17'1 1.0
2015-Mar-22 17:31N 22°34' E 114°16'0 0.0
2015-Mar-22 16:31N 22°34' E 114°16'0 0.0
2015-Mar-22 15:25N 22°34' E 114°16'0 0.0
2015-Mar-22 14:20N 22°34' E 114°16'0 0.0
2015-Mar-22 13:19N 22°34' E 114°16'0 0.0
2015-Mar-22 12:31N 22°34' E 114°16'0 0.0
2015-Mar-22 11:13N 22°34' E 114°16'0 0.0
2015-Mar-22 10:25N 22°34' E 114°16'0 0.0
2015-Mar-22 06:25N 22°34' E 114°16'0 0.0
2015-Mar-22 05:31N 22°34' E 114°16'0 0.0
2015-Mar-22 01:04N 22°34' E 114°16'2 3.4
2015-Mar-22 00:33N 22°34' E 114°17'2110.3
2015-Mar-21 22:33N 22°17' E 114°30'1716.9
2015-Mar-21 21:34N 22°08' E 114°15'1212.3
2015-Mar-21 20:33N 22°17' E 114°06'3 3.2
2015-Mar-21 19:32N 22°20' E 114°08'0 0.0
2015-Mar-21 18:29N 22°20' E 114°08'0 0.0
2015-Mar-21 17:29N 22°20' E 114°08'0 0.0
2015-Mar-21 16:29N 22°20' E 114°08'0 0.0
2015-Mar-21 15:32N 22°20' E 114°08'0 0.0
2015-Mar-21 14:29N 22°20' E 114°08'0 0.0
2015-Mar-21 13:32N 22°20' E 114°08'0 0.0
2015-Mar-21 12:32N 22°20' E 114°08'0 0.0
2015-Mar-21 11:23N 22°20' E 114°08'0 0.0
2015-Mar-21 10:32N 22°20' E 114°08'0 0.1
2015-Mar-21 09:32N 22°20' E 114°08'0 0.1
2015-Mar-21 08:32N 22°20' E 114°08'0 0.0
2015-Mar-21 07:32N 22°20' E 114°08'0 0.0
2015-Mar-21 06:29N 22°20' E 114°08'0 0.0
2015-Mar-21 05:26N 22°20' E 114°08'0 0.0
2015-Mar-21 04:23N 22°20' E 114°08'0 0.0
2015-Mar-21 03:29N 22°20' E 114°08'0 0.1
2015-Mar-21 02:33N 22°20' E 114°08'3 3.1
2015-Mar-21 01:33N 22°17' E 114°06'6 5.6
2015-Mar-21 00:33N 22°13' E 114°10'6 5.6
2015-Mar-20 23:33N 22°09' E 114°15'6 6.2
2015-Mar-20 22:33N 22°09' E 114°21'6 6.4
2015-Mar-20 21:33N 22°09' E 114°28'193 9.2
2015-Mar-20 00:28N 23°27' E 117°40'1718.7
2015-Mar-19 23:33N 23°39' E 117°53'1918.8
2015-Mar-19 22:32N 23°53' E 118°07'1818.5
2015-Mar-19 21:33N 24°08' E 118°19'1616.0
2015-Mar-19 20:33N 24°21' E 118°09'9 7.2
2015-Mar-19 19:18N 24°27' E 118°01'0 0.0
2015-Mar-19 18:30N 24°27' E 118°01'0 0.0
2015-Mar-19 17:30N 24°27' E 118°01'0 0.0
2015-Mar-19 07:30N 24°27' E 118°01'0 0.0
2015-Mar-19 05:18N 24°27' E 118°01'1 1.1
2015-Mar-19 04:29N 24°26' E 118°02'1010.6
2015-Mar-19 03:33N 24°20' E 118°10'11 2.4
2015-Mar-18 23:15N 24°14' E 118°20'0 0.0
2015-Mar-18 22:32N 24°14' E 118°20'1 0.6
2015-Mar-18 21:32N 24°14' E 118°20'9 9.3
2015-Mar-18 20:33N 24°06' E 118°26'5513.6
2015-Mar-18 16:33N 23°20' E 118°57'1913.3
2015-Mar-18 15:07N 23°05' E 119°10'812.2
2015-Mar-18 14:29N 23°04' E 119°18'2613.2
2015-Mar-18 12:32N 22°59' E 119°46'1813.6
2015-Mar-18 11:13N 22°46' E 119°59'914.3
2015-Mar-18 10:34N 22°39' E 120°05'1312.6
2015-Mar-18 09:33N 22°33' E 120°18'2 1.9
2015-Mar-18 08:33N 22°33' E 120°20'0 0.0
2015-Mar-18 07:33N 22°33' E 120°20'0 0.0
2015-Mar-18 06:33N 22°33' E 120°20'0 0.0
2015-Mar-18 05:33N 22°33' E 120°20'0 0.0
2015-Mar-18 04:27N 22°33' E 120°20'  

Dump ship's entire track history